Time;durP1;ratioP1;P1;durP2;ratioP2;P2;SDS_P1;SDS_P2;PMS_P1;PMS_P2;Temp;Humidity;BMP_temperature;BMP_pressure;BME280_temperature;BME280_humidity;BME280_pressure;Samples;Min_cycle;Max_cycle;Signal;HPM_P1;HPM_P2
2023/08/27 12:38:09;;;;;;;1.95;0.50;;;16.60;99.90;;;;;;5042616;28;20323;-69
2023/08/27 12:40:35;;;;;;;0.88;0.52;;;16.30;99.90;;;;;;5051643;27;20052;-69
2023/08/27 12:43:00;;;;;;;0.45;0.35;;;16.10;99.90;;;;;;5000312;28;20038;-69
2023/08/27 12:45:26;;;;;;;1.63;0.43;;;15.90;99.90;;;;;;5033047;28;20438;-67
2023/08/27 12:47:52;;;;;;;1.45;0.50;;;15.70;99.90;;;;;;5022208;28;20393;-66
2023/08/27 12:50:18;;;;;;;1.55;0.60;;;15.50;99.90;;;;;;5020767;28;20037;-67
2023/08/27 12:52:44;;;;;;;0.75;0.30;;;15.40;99.90;;;;;;5031021;28;20549;-66
2023/08/27 12:55:09;;;;;;;1.73;0.70;;;15.30;99.90;;;;;;5030886;28;20081;-66
2023/08/27 12:57:35;;;;;;;1.77;0.55;;;15.30;99.90;;;;;;5014959;28;20077;-66
2023/08/27 13:00:01;;;;;;;1.10;0.30;;;15.30;99.90;;;;;;5017306;28;20413;-65
2023/08/27 13:02:27;;;;;;;0.52;0.50;;;15.30;99.90;;;;;;5032435;28;20065;-65
2023/08/27 13:04:52;;;;;;;1.33;0.38;;;15.40;99.90;;;;;;4993456;28;21223;-66
2023/08/27 13:07:19;;;;;;;0.52;0.40;;;15.60;99.90;;;;;;5017234;28;20037;-67
2023/08/27 13:09:44;;;;;;;0.20;0.20;;;16.00;99.90;;;;;;5017235;28;20034;-67
2023/08/27 13:12:10;;;;;;;0.45;0.30;;;16.30;99.90;;;;;;5017195;28;20505;-66
2023/08/27 13:14:36;;;;;;;0.93;0.50;;;16.70;99.90;;;;;;5016036;28;20052;-68
2023/08/27 13:17:02;;;;;;;0.70;0.38;;;17.10;99.90;;;;;;5018588;28;20045;-68
2023/08/27 13:19:28;;;;;;;0.30;0.30;;;17.50;99.90;;;;;;5016314;28;20041;-69
2023/08/27 13:21:53;;;;;;;2.30;0.30;;;17.80;99.90;;;;;;5032740;28;20102;-69
2023/08/27 13:24:20;;;;;;;0.30;0.20;;;18.10;99.90;;;;;;5031472;28;20553;-68
2023/08/27 13:26:47;;;;;;;0.25;0.20;;;18.20;99.90;;;;;;5014396;28;20111;-66
2023/08/27 13:29:13;;;;;;;0.52;0.30;;;18.40;99.90;;;;;;5016161;28;20042;-68
2023/08/27 13:31:39;;;;;;;0.55;0.35;;;18.50;99.90;;;;;;5030521;28;20037;-67
2023/08/27 13:34:05;;;;;;;2.42;0.75;;;18.60;99.90;;;;;;5032704;28;20042;-69
2023/08/27 13:36:31;;;;;;;0.63;0.52;;;18.70;99.90;;;;;;5027451;28;20054;-68
2023/08/27 13:38:57;;;;;;;0.77;0.52;;;18.80;99.90;;;;;;4995210;28;20575;-68
2023/08/27 13:41:23;;;;;;;0.30;0.20;;;18.80;99.90;;;;;;4996611;28;20091;-66
2023/08/27 13:43:49;;;;;;;0.30;0.20;;;18.80;99.90;;;;;;4995782;28;20042;-69
2023/08/27 13:46:14;;;;;;;0.65;0.20;;;18.70;99.90;;;;;;4995300;28;20053;-66
2023/08/27 13:48:40;;;;;;;0.10;0.10;;;19.00;99.90;;;;;;4987913;28;20402;-67
2023/08/27 13:51:06;;;;;;;0.10;0.10;;;19.20;99.90;;;;;;4983000;28;20386;-66
2023/08/27 13:53:32;;;;;;;2.67;0.30;;;19.10;99.90;;;;;;4982093;28;20100;-66
2023/08/27 13:55:58;;;;;;;0.20;0.20;;;19.30;99.90;;;;;;4979647;28;20054;-66
2023/08/27 13:58:24;;;;;;;0.65;0.22;;;19.60;99.90;;;;;;4981106;28;20096;-65
2023/08/27 14:00:49;;;;;;;1.00;0.20;;;20.00;99.90;;;;;;4983289;28;20030;-65
2023/08/27 14:03:15;;;;;;;0.28;0.22;;;19.90;99.90;;;;;;5014066;28;20045;-65
2023/08/27 14:05:41;;;;;;;0.30;0.20;;;19.90;99.90;;;;;;4983973;28;20129;-66
2023/08/27 14:08:07;;;;;;;1.02;0.25;;;19.90;99.90;;;;;;4983250;28;20034;-66
2023/08/27 14:10:37;;;;;;;0.63;0.20;;;19.80;99.90;;;;;;4982994;28;20037;-67
2023/08/27 14:13:04;;;;;;;0.30;0.20;;;19.80;99.90;;;;;;5015382;28;20512;-66
2023/08/27 14:15:30;;;;;;;0.10;0.10;;;19.80;99.90;;;;;;4980580;28;20091;-66
2023/08/27 14:17:55;;;;;;;0.30;0.20;;;19.90;99.90;;;;;;4983907;28;20045;-66
2023/08/27 14:20:23;;;;;;;0.55;0.30;;;19.90;99.90;;;;;;4984399;28;20026;-66
2023/08/27 14:22:49;;;;;;;0.30;0.20;;;20.60;99.90;;;;;;4979738;28;20104;-66
2023/08/27 14:25:15;;;;;;;0.77;0.32;;;21.10;99.90;;;;;;4982368;28;20042;-65
2023/08/27 14:27:41;;;;;;;1.67;0.65;;;21.30;99.90;;;;;;4982798;28;20643;-65
2023/08/27 14:30:07;;;;;;;0.45;0.20;;;21.10;99.90;;;;;;4982860;28;20129;-65
2023/08/27 14:32:33;;;;;;;1.05;0.50;;;20.60;99.90;;;;;;4982619;28;20501;-65
2023/08/27 14:34:59;;;;;;;0.30;0.13;;;20.20;99.90;;;;;;4982560;28;20042;-64
2023/08/27 14:37:24;;;;;;;0.35;0.20;;;19.90;99.90;;;;;;4995913;28;20109;-65
2023/08/27 14:39:50;;;;;;;0.45;0.30;;;19.60;99.90;;;;;;5016971;28;20120;-64
2023/08/27 14:42:16;;;;;;;0.10;0.10;;;19.30;99.90;;;;;;5002836;28;20081;-65
2023/08/27 14:44:41;;;;;;;1.05;0.30;;;18.90;99.90;;;;;;4996208;28;20067;-65
2023/08/27 14:47:07;;;;;;;0.68;0.30;;;18.70;99.90;;;;;;4981008;28;20041;-65
2023/08/27 14:49:33;;;;;;;0.40;0.30;;;18.40;99.90;;;;;;4997450;28;20050;-65
2023/08/27 14:51:59;;;;;;;0.40;0.10;;;18.30;99.90;;;;;;4996581;28;20413;-65
2023/08/27 14:54:25;;;;;;;0.30;0.30;;;18.10;99.90;;;;;;5004790;28;20045;-65
2023/08/27 14:56:52;;;;;;;0.40;0.30;;;17.90;99.90;;;;;;5028166;27;20053;-65
2023/08/27 14:59:38;;;;;;;1.88;0.40;;;17.80;99.90;;;;;;5006012;28;20493;-65
2023/08/27 15:02:05;;;;;;;0.88;0.25;;;17.70;99.90;;;;;;5006714;28;20053;-65
2023/08/27 15:04:31;;;;;;;0.38;0.25;;;17.60;99.90;;;;;;4998391;28;20480;-65
2023/08/27 15:06:58;;;;;;;0.50;0.30;;;17.50;99.90;;;;;;5014780;28;20462;-64
2023/08/27 15:09:25;;;;;;;1.13;0.40;;;17.50;99.90;;;;;;5016563;28;20079;-64
2023/08/27 15:11:51;;;;;;;0.50;0.40;;;17.50;99.90;;;;;;5000150;28;20079;-65
2023/08/27 15:14:21;;;;;;;0.52;0.30;;;17.50;99.90;;;;;;4998197;28;20081;-65
2023/08/27 15:16:50;;;;;;;0.43;0.32;;;17.50;99.90;;;;;;5008872;28;20056;-64
2023/08/27 15:19:17;;;;;;;1.63;0.50;;;17.50;99.90;;;;;;4996272;28;20050;-64
2023/08/27 15:21:44;;;;;;;0.40;0.20;;;17.50;99.90;;;;;;5000866;28;20037;-65
2023/08/27 15:24:10;;;;;;;0.28;0.20;;;17.60;99.90;;;;;;4996387;28;20043;-64
2023/08/27 15:26:36;;;;;;;0.75;0.57;;;17.60;99.90;;;;;;5001221;28;20116;-65
2023/08/27 15:29:03;;;;;;;2.03;0.40;;;17.70;99.90;;;;;;5001751;28;20140;-65
2023/08/27 15:31:30;;;;;;;0.40;0.20;;;17.80;99.90;;;;;;5016508;28;20049;-65
2023/08/27 15:33:57;;;;;;;0.20;0.20;;;17.80;99.90;;;;;;5001097;28;20120;-66
2023/08/27 15:36:24;;;;;;;0.38;0.30;;;17.90;99.90;;;;;;4995381;28;20146;-66
2023/08/27 15:38:49;;;;;;;0.68;0.40;;;17.80;99.90;;;;;;4990371;28;20061;-66
2023/08/27 15:41:17;;;;;;;0.43;0.35;;;17.70;99.90;;;;;;4997341;28;20046;-66
2023/08/27 15:43:43;;;;;;;0.77;0.30;;;17.60;99.90;;;;;;4996766;28;20057;-66
2023/08/27 15:46:10;;;;;;;1.25;0.30;;;17.40;99.90;;;;;;5003976;28;20401;-70
2023/08/27 15:48:36;;;;;;;0.60;0.30;;;17.20;99.90;;;;;;5018919;28;20585;-66
2023/08/27 15:51:02;;;;;;;0.40;0.40;;;17.00;99.90;;;;;;5015931;28;20041;-66
2023/08/27 15:53:28;;;;;;;0.55;0.35;;;16.70;99.90;;;;;;5020497;28;20034;-66
2023/08/27 15:55:59;;;;;;;2.20;0.38;;;16.40;99.90;;;;;;5004139;28;20050;-67
2023/08/27 15:58:27;;;;;;;0.75;0.50;;;16.30;99.90;;;;;;5007441;28;20034;-66
2023/08/27 16:00:53;;;;;;;0.40;0.30;;;16.20;99.90;;;;;;4997792;28;20045;-67
2023/08/27 16:03:18;;;;;;;1.23;0.40;;;16.30;99.90;;;;;;4991309;28;20046;-67
2023/08/27 16:05:44;;;;;;;1.17;0.65;;;16.50;99.90;;;;;;5015541;28;20102;-68
2023/08/27 16:08:10;;;;;;;0.73;0.50;;;16.70;99.90;;;;;;4999965;28;20044;-67
2023/08/27 16:10:39;;;;;;;1.25;0.60;;;16.80;99.90;;;;;;4999678;28;20038;-66
2023/08/27 16:13:05;;;;;;;0.32;0.30;;;16.90;99.90;;;;;;5003767;28;20084;-67
2023/08/27 16:15:31;;;;;;;0.80;0.45;;;17.00;99.90;;;;;;5000198;28;20065;-67
2023/08/27 16:17:57;;;;;;;0.65;0.35;;;17.10;99.90;;;;;;5015561;28;20133;-67
2023/08/27 16:20:23;;;;;;;0.65;0.40;;;17.10;99.90;;;;;;5010597;28;20605;-67
2023/08/27 16:22:48;;;;;;;0.70;0.40;;;17.10;99.90;;;;;;4997954;28;20157;-68
2023/08/27 16:25:15;;;;;;;1.05;0.55;;;17.10;99.90;;;;;;4998836;28;20113;-66
2023/08/27 16:27:41;;;;;;;0.50;0.30;;;17.10;99.90;;;;;;4999738;28;20125;-67
2023/08/27 16:30:08;;;;;;;0.60;0.17;;;17.10;99.90;;;;;;4998578;28;20046;-67
2023/08/27 16:32:34;;;;;;;0.52;0.40;;;17.20;99.90;;;;;;5000365;28;20046;-66
2023/08/27 16:35:00;;;;;;;0.40;0.30;;;17.20;99.90;;;;;;5015190;28;20592;-66
2023/08/27 16:37:26;;;;;;;0.90;0.30;;;17.20;99.90;;;;;;4987330;28;20085;-66
2023/08/27 16:39:52;;;;;;;2.17;0.30;;;17.40;99.90;;;;;;5000444;28;20442;-68
2023/08/27 16:42:17;;;;;;;1.27;0.32;;;17.50;99.90;;;;;;5015477;28;20042;-67
2023/08/27 16:44:44;;;;;;;0.50;0.30;;;17.60;99.90;;;;;;4999260;28;20124;-67
2023/08/27 16:47:10;;;;;;;0.65;0.32;;;17.50;99.90;;;;;;5003529;28;20091;-67
2023/08/27 16:49:36;;;;;;;0.10;0.10;;;17.50;99.90;;;;;;4998106;28;20042;-67
2023/08/27 16:52:02;;;;;;;0.10;0.10;;;17.40;99.90;;;;;;5003028;28;20106;-67
2023/08/27 16:54:28;;;;;;;0.35;0.20;;;17.40;99.90;;;;;;5002000;28;20038;-67
2023/08/27 16:56:54;;;;;;;0.10;0.10;;;17.30;99.90;;;;;;5005430;28;20053;-67
2023/08/27 16:59:20;;;;;;;0.32;0.10;;;17.20;99.90;;;;;;4995084;28;20037;-67
2023/08/27 17:01:46;;;;;;;0.43;0.30;;;17.10;99.90;;;;;;5009635;28;20049;-67
2023/08/27 17:04:12;;;;;;;0.30;0.10;;;16.90;99.90;;;;;;5014773;28;20054;-66
2023/08/27 17:06:38;;;;;;;0.10;0.10;;;16.90;99.90;;;;;;4999099;28;20045;-66
2023/08/27 17:09:05;;;;;;;1.20;0.20;;;16.80;99.90;;;;;;5005142;28;20046;-66
2023/08/27 17:11:31;;;;;;;0.10;0.10;;;16.80;99.90;;;;;;5006416;28;20140;-66
2023/08/27 17:13:59;;;;;;;0.10;0.10;;;16.70;99.90;;;;;;5010686;28;20054;-67
2023/08/27 17:16:25;;;;;;;0.10;0.10;;;16.70;99.90;;;;;;5018482;28;20382;-67
2023/08/27 17:18:51;;;;;;;0.13;0.13;;;16.70;99.90;;;;;;5016839;28;20497;-67
2023/08/27 17:21:17;;;;;;;0.10;0.10;;;16.60;99.90;;;;;;5006305;28;20045;-66
2023/08/27 17:23:43;;;;;;;0.20;0.20;;;16.60;99.90;;;;;;5006838;28;20038;-66
2023/08/27 17:26:09;;;;;;;0.22;0.10;;;16.50;99.90;;;;;;5004749;28;20389;-67
2023/08/27 17:28:35;;;;;;;0.77;0.25;;;16.50;99.90;;;;;;5015347;28;20045;-66
2023/08/27 17:31:00;;;;;;;0.20;0.20;;;16.50;99.90;;;;;;5078065;28;20570;-67
2023/08/27 17:33:29;;;;;;;0.30;0.10;;;16.40;99.90;;;;;;5026506;28;20117;-64
2023/08/27 17:35:56;;;;;;;0.38;0.30;;;16.30;99.90;;;;;;4959576;28;20095;-65
2023/08/27 17:38:22;;;;;;;0.52;0.20;;;16.20;99.90;;;;;;4991674;28;20067;-65
2023/08/27 17:40:54;;;;;;;0.63;0.30;;;16.10;99.90;;;;;;4975561;28;20489;-65
2023/08/27 17:43:22;;;;;;;0.10;0.10;;;16.00;99.90;;;;;;4992438;28;20077;-65
2023/08/27 17:45:49;;;;;;;0.10;0.10;;;15.90;99.90;;;;;;4975901;28;20046;-65
2023/08/27 17:48:16;;;;;;;0.10;0.10;;;15.80;99.90;;;;;;4976287;28;20088;-65
2023/08/27 17:50:48;;;;;;;0.25;0.25;;;15.70;99.90;;;;;;5009339;28;20046;-66
2023/08/27 17:53:18;;;;;;;0.20;0.10;;;15.60;99.90;;;;;;5009136;28;20038;-66
2023/08/27 17:55:47;;;;;;;0.68;0.50;;;15.50;99.90;;;;;;4975783;28;20038;-66
2023/08/27 17:58:29;;;;;;;0.20;0.20;;;15.40;99.90;;;;;;5012128;28;20057;-66
2023/08/27 18:01:04;;;;;;;1.20;0.38;;;15.40;99.90;;;;;;5027575;28;20043;-66
2023/08/27 18:03:31;;;;;;;0.40;0.20;;;15.30;99.90;;;;;;5029533;28;20042;-66
2023/08/27 18:06:04;;;;;;;0.20;0.20;;;15.30;99.90;;;;;;5011427;28;20550;-65
2023/08/27 18:08:31;;;;;;;0.10;0.10;;;15.30;99.90;;;;;;4994149;28;20572;-65
2023/08/27 18:10:56;;;;;;;0.70;0.43;;;15.30;99.90;;;;;;4991829;28;20129;-66
2023/08/27 18:13:24;;;;;;;0.35;0.28;;;15.20;99.90;;;;;;4991421;28;20048;-65
2023/08/27 18:15:50;;;;;;;0.30;0.20;;;15.20;99.90;;;;;;4988512;28;20057;-66
2023/08/27 18:18:17;;;;;;;2.40;0.20;;;15.10;99.90;;;;;;5009083;28;20045;-66
2023/08/27 18:20:42;;;;;;;1.63;0.22;;;15.00;99.90;;;;;;5076978;28;20053;-66
2023/08/27 18:23:08;;;;;;;0.10;0.10;;;14.90;99.90;;;;;;5077142;28;20556;-66
2023/08/27 18:25:35;;;;;;;0.20;0.17;;;14.90;99.90;;;;;;5077270;28;20037;-68
2023/08/27 18:28:01;;;;;;;0.32;0.20;;;14.80;99.90;;;;;;5008478;28;20054;-67
2023/08/27 18:30:30;;;;;;;0.63;0.30;;;14.70;99.90;;;;;;5077076;28;20038;-65
2023/08/27 18:33:01;;;;;;;0.20;0.20;;;14.60;99.90;;;;;;5076943;28;20050;-65
2023/08/27 18:35:27;;;;;;;0.13;0.13;;;14.60;99.90;;;;;;5023342;28;20046;-64
2023/08/27 18:37:53;;;;;;;0.22;0.20;;;14.60;99.90;;;;;;4991182;28;20543;-65
2023/08/27 18:40:19;;;;;;;0.22;0.20;;;14.60;99.90;;;;;;5008951;28;20042;-65
2023/08/27 18:42:44;;;;;;;1.35;0.30;;;14.60;99.90;;;;;;5008065;28;20557;-65
2023/08/27 18:48:51;;;;;;;0.40;0.30;;;14.70;99.90;;;;;;5007139;28;20094;-66
2023/08/27 18:51:16;;;;;;;0.30;0.20;;;14.70;99.90;;;;;;5008692;28;20042;-66
2023/08/27 18:53:42;;;;;;;0.30;0.30;;;14.70;99.90;;;;;;5000733;28;20045;-67
2023/08/27 18:56:08;;;;;;;0.50;0.30;;;14.70;99.90;;;;;;5027748;28;20033;-66
2023/08/27 18:58:34;;;;;;;0.30;0.30;;;14.70;99.90;;;;;;5028004;28;20469;-66
2023/08/27 19:00:59;;;;;;;0.38;0.32;;;14.70;99.90;;;;;;5010633;28;20093;-66
2023/08/27 19:03:25;;;;;;;0.45;0.40;;;14.60;99.90;;;;;;5009712;28;20048;-66
2023/08/27 19:05:51;;;;;;;0.20;0.20;;;14.50;99.90;;;;;;5027940;28;20042;-68
2023/08/27 19:08:17;;;;;;;0.28;0.15;;;14.50;99.90;;;;;;4979115;28;20050;-68
2023/08/27 19:10:43;;;;;;;0.80;0.40;;;14.40;99.90;;;;;;5004401;28;20034;-68
2023/08/27 19:13:11;;;;;;;0.17;0.17;;;14.40;99.90;;;;;;5008344;28;20037;-67
2023/08/27 19:15:36;;;;;;;0.22;0.15;;;14.30;99.90;;;;;;4991065;28;20107;-67
2023/08/27 19:18:03;;;;;;;0.20;0.10;;;14.20;99.90;;;;;;4989441;28;20615;-67
2023/08/27 19:20:29;;;;;;;0.20;0.20;;;14.20;99.90;;;;;;4990879;28;20046;-67
2023/08/27 19:22:55;;;;;;;0.10;0.10;;;14.20;99.90;;;;;;4990573;28;20132;-67
2023/08/27 19:25:21;;;;;;;0.95;0.30;;;14.10;99.90;;;;;;4990133;28;20128;-66
2023/08/27 19:27:47;;;;;;;0.30;0.20;;;14.10;99.90;;;;;;4974737;28;20045;-69
2023/08/27 19:30:13;;;;;;;0.20;0.20;;;14.00;99.90;;;;;;5007692;28;20389;-68
2023/08/27 19:32:39;;;;;;;0.80;0.22;;;14.00;99.90;;;;;;5008010;28;20053;-70
2023/08/27 19:35:06;;;;;;;0.73;0.30;;;13.90;99.90;;;;;;4990830;28;20054;-70
2023/08/27 19:37:33;;;;;;;0.30;0.20;;;13.90;99.90;;;;;;5007253;28;20062;-69
2023/08/27 19:39:58;;;;;;;0.55;0.22;;;13.90;99.90;;;;;;5007999;28;20048;-69
2023/08/27 19:42:24;;;;;;;0.30;0.20;;;13.80;99.90;;;;;;5007888;28;20030;-67
2023/08/27 19:44:50;;;;;;;0.22;0.20;;;13.80;99.90;;;;;;4989693;28;20390;-68
2023/08/27 19:47:16;;;;;;;0.20;0.20;;;13.80;99.90;;;;;;4990061;28;20042;-67
2023/08/27 19:49:41;;;;;;;0.25;0.20;;;13.80;99.90;;;;;;5012452;28;21274;-66
2023/08/27 19:52:07;;;;;;;0.50;0.40;;;13.90;99.90;;;;;;4973304;28;20046;-66
2023/08/27 19:54:33;;;;;;;0.70;0.30;;;13.90;99.90;;;;;;4990093;28;20053;-66
2023/08/27 19:56:59;;;;;;;1.38;0.40;;;13.90;99.90;;;;;;4989838;28;20125;-65
2023/08/27 19:59:24;;;;;;;0.22;0.15;;;13.90;99.90;;;;;;4996282;28;20030;-65
2023/08/27 20:01:51;;;;;;;0.43;0.25;;;14.00;99.90;;;;;;5008814;28;20079;-65
2023/08/27 20:04:16;;;;;;;1.13;0.52;;;14.00;99.90;;;;;;5027353;28;20042;-67
2023/08/27 20:06:42;;;;;;;0.40;0.25;;;14.00;99.90;;;;;;5004807;28;20048;-67
2023/08/27 20:09:08;;;;;;;0.30;0.20;;;13.90;99.90;;;;;;5021950;28;20034;-68
2023/08/27 20:11:36;;;;;;;1.65;0.25;;;13.90;99.90;;;;;;4990433;28;20397;-67
2023/08/27 20:14:02;;;;;;;0.70;0.30;;;13.80;99.90;;;;;;5021883;28;20058;-68
2023/08/27 20:16:28;;;;;;;0.22;0.20;;;13.80;99.90;;;;;;4989239;28;20056;-67
2023/08/27 20:18:53;;;;;;;0.30;0.30;;;13.70;99.90;;;;;;5007174;28;20109;-71
2023/08/27 20:21:19;;;;;;;0.35;0.32;;;13.70;99.90;;;;;;5074567;28;20037;-68
2023/08/27 20:23:45;;;;;;;0.38;0.30;;;13.70;99.90;;;;;;5075085;28;20103;-67
2023/08/27 20:26:11;;;;;;;0.32;0.25;;;13.60;99.90;;;;;;5007304;28;20038;-67
2023/08/27 20:28:36;;;;;;;1.70;0.35;;;13.70;99.90;;;;;;5006578;28;20448;-66
2023/08/27 20:31:02;;;;;;;0.50;0.40;;;13.60;99.90;;;;;;5049860;28;20050;-67
2023/08/27 20:33:28;;;;;;;0.32;0.20;;;13.70;99.90;;;;;;5006622;28;20044;-67
2023/08/27 20:35:54;;;;;;;0.50;0.20;;;13.70;99.90;;;;;;4973461;28;20501;-67
2023/08/27 20:38:20;;;;;;;0.57;0.30;;;13.70;99.90;;;;;;5006776;28;20054;-67
2023/08/27 20:40:46;;;;;;;0.30;0.25;;;13.70;99.90;;;;;;4988477;28;20041;-67
2023/08/27 20:43:14;;;;;;;2.08;0.52;;;13.70;99.90;;;;;;4989223;28;20042;-67
2023/08/27 20:45:43;;;;;;;1.13;0.22;;;13.60;99.90;;;;;;4995063;28;20063;-67
2023/08/27 20:48:09;;;;;;;0.28;0.20;;;13.60;99.90;;;;;;4993786;28;20042;-67
2023/08/27 20:50:34;;;;;;;0.35;0.30;;;13.60;99.90;;;;;;5006399;28;20125;-66
2023/08/27 20:53:00;;;;;;;0.80;0.20;;;13.50;99.90;;;;;;5005305;28;20101;-67
2023/08/27 20:55:26;;;;;;;0.30;0.30;;;13.50;99.90;;;;;;4989126;28;20099;-66
2023/08/27 20:57:52;;;;;;;1.00;0.40;;;13.50;99.90;;;;;;5007627;28;20042;-67
2023/08/27 21:00:18;;;;;;;0.20;0.20;;;13.40;99.90;;;;;;5006627;28;20553;-67
2023/08/27 21:02:43;;;;;;;1.08;0.30;;;13.40;99.90;;;;;;5011048;28;20501;-67
2023/08/27 21:05:09;;;;;;;0.52;0.30;;;13.30;99.90;;;;;;4989853;28;20070;-68
2023/08/27 21:07:37;;;;;;;1.02;0.43;;;13.30;99.90;;;;;;5010093;28;20049;-67
2023/08/27 21:10:03;;;;;;;1.10;0.40;;;13.20;99.90;;;;;;5009511;28;20050;-67
2023/08/27 21:12:29;;;;;;;1.40;0.63;;;13.20;99.90;;;;;;5025733;28;20041;-67
2023/08/27 21:14:54;;;;;;;0.60;0.40;;;13.10;99.90;;;;;;4992715;28;20042;-67
2023/08/27 21:17:20;;;;;;;0.60;0.50;;;13.10;99.90;;;;;;5008478;28;20095;-67
2023/08/27 21:19:46;;;;;;;2.42;0.52;;;13.00;99.90;;;;;;5008940;28;20146;-67
2023/08/27 21:22:12;;;;;;;0.47;0.22;;;12.90;99.90;;;;;;5010163;28;20030;-66
2023/08/27 21:24:38;;;;;;;3.50;0.43;;;12.90;99.90;;;;;;4992485;28;20661;-67
2023/08/27 21:27:04;;;;;;;0.88;0.40;;;12.90;99.90;;;;;;4992456;28;20074;-67
2023/08/27 21:29:30;;;;;;;0.68;0.45;;;12.80;99.90;;;;;;5009404;28;20130;-66
2023/08/27 21:31:55;;;;;;;0.75;0.40;;;12.80;99.90;;;;;;4992529;28;20042;-66
2023/08/27 21:34:21;;;;;;;0.80;0.40;;;12.80;99.90;;;;;;4992310;28;20437;-67
2023/08/27 21:36:48;;;;;;;1.35;0.47;;;12.70;99.90;;;;;;5009011;28;20160;-67
2023/08/27 21:39:14;;;;;;;0.60;0.38;;;12.70;99.90;;;;;;4992089;28;20042;-67
2023/08/27 21:41:40;;;;;;;0.95;0.55;;;12.70;99.90;;;;;;5033343;28;20052;-66
2023/08/27 21:44:07;;;;;;;1.17;0.32;;;12.70;99.90;;;;;;5006996;28;20057;-66
2023/08/27 21:46:33;;;;;;;2.10;0.70;;;12.70;99.90;;;;;;5005305;28;20051;-66
2023/08/27 21:48:58;;;;;;;0.35;0.30;;;12.70;99.90;;;;;;5005452;28;20046;-67
2023/08/27 21:51:24;;;;;;;0.77;0.20;;;12.70;99.90;;;;;;4989593;28;20054;-67
2023/08/27 21:53:50;;;;;;;0.50;0.40;;;12.70;99.90;;;;;;5005266;28;20115;-67
2023/08/27 21:56:16;;;;;;;3.25;0.50;;;12.80;99.90;;;;;;4972599;28;20096;-67
2023/08/27 21:58:42;;;;;;;0.77;0.38;;;12.70;99.90;;;;;;4991551;28;20045;-67
2023/08/27 22:01:09;;;;;;;1.00;0.90;;;12.70;99.90;;;;;;5011367;28;20120;-67
2023/08/27 22:03:35;;;;;;;0.73;0.47;;;12.80;99.90;;;;;;4992059;28;20505;-66
2023/08/27 22:06:07;;;;;;;1.48;0.50;;;12.70;99.90;;;;;;4991365;28;20081;-66
2023/08/27 22:08:34;;;;;;;0.47;0.30;;;12.70;99.90;;;;;;4991722;28;20069;-66
2023/08/27 22:11:00;;;;;;;2.25;0.32;;;12.70;99.90;;;;;;4991554;28;20074;-67
2023/08/27 22:13:26;;;;;;;1.05;0.57;;;12.70;99.90;;;;;;4991162;28;20089;-67
2023/08/27 22:15:52;;;;;;;0.38;0.30;;;12.70;99.90;;;;;;4991959;28;20094;-67
2023/08/27 22:18:18;;;;;;;1.23;0.70;;;12.60;99.90;;;;;;4997508;28;20042;-67
2023/08/27 22:20:44;;;;;;;1.17;0.63;;;12.60;99.90;;;;;;5060147;28;20042;-67
2023/08/27 22:23:10;;;;;;;0.88;0.55;;;12.50;99.90;;;;;;5077288;28;20049;-67
2023/08/27 22:25:35;;;;;;;0.38;0.30;;;12.50;99.90;;;;;;5076375;28;20042;-66
2023/08/27 22:28:04;;;;;;;0.65;0.40;;;12.50;99.90;;;;;;5025135;28;20113;-67
2023/08/27 22:30:30;;;;;;;1.02;0.60;;;12.50;99.90;;;;;;4991405;28;20038;-67
2023/08/27 22:32:56;;;;;;;0.28;0.20;;;12.50;99.90;;;;;;5008311;28;20045;-66
2023/08/27 22:35:22;;;;;;;0.30;0.20;;;12.50;99.90;;;;;;4991647;28;20045;-67
2023/08/27 22:37:47;;;;;;;0.68;0.40;;;12.40;99.90;;;;;;4994341;28;20446;-67
2023/08/27 22:40:13;;;;;;;1.58;0.60;;;12.40;99.90;;;;;;5041595;28;20438;-67
2023/08/27 22:42:39;;;;;;;4.25;0.60;;;12.40;99.90;;;;;;5004762;28;20494;-67
2023/08/27 22:45:06;;;;;;;0.75;0.50;;;12.40;99.90;;;;;;4989292;28;20406;-66
2023/08/27 22:47:32;;;;;;;0.45;0.30;;;12.30;99.90;;;;;;4988569;28;20125;-66
2023/08/27 22:49:58;;;;;;;0.75;0.32;;;12.40;99.90;;;;;;4989115;28;20099;-67
2023/08/27 22:52:24;;;;;;;0.57;0.38;;;12.40;99.90;;;;;;4955562;28;20532;-67
2023/08/27 22:54:51;;;;;;;1.38;0.50;;;12.40;99.90;;;;;;5003747;28;20046;-67
2023/08/27 22:57:17;;;;;;;1.17;0.50;;;12.30;99.90;;;;;;4985542;28;20074;-66
2023/08/27 22:59:43;;;;;;;0.80;0.47;;;12.40;99.90;;;;;;4994071;28;20057;-66
2023/08/27 23:02:08;;;;;;;0.77;0.40;;;12.30;99.90;;;;;;4990540;28;20512;-67
2023/08/27 23:04:34;;;;;;;1.08;0.47;;;12.40;99.90;;;;;;4974902;28;20083;-66
2023/08/27 23:07:00;;;;;;;0.32;0.25;;;12.40;99.90;;;;;;4990736;28;20045;-67
2023/08/27 23:09:26;;;;;;;0.40;0.40;;;12.40;99.90;;;;;;4990680;28;20042;-67
2023/08/27 23:11:51;;;;;;;0.82;0.32;;;12.30;99.90;;;;;;4991153;28;20547;-67
2023/08/27 23:14:17;;;;;;;1.23;0.38;;;12.30;99.90;;;;;;4974326;28;20099;-67
2023/08/27 23:16:43;;;;;;;3.25;0.60;;;12.30;99.90;;;;;;5008089;28;20067;-66
2023/08/27 23:19:09;;;;;;;1.05;0.50;;;12.40;99.90;;;;;;5019779;28;20045;-66
2023/08/27 23:21:35;;;;;;;2.08;1.02;;;12.40;99.90;;;;;;5026437;28;20073;-66
2023/08/27 23:24:03;;;;;;;3.05;1.10;;;12.40;99.90;;;;;;5027929;28;20041;-66
2023/08/27 23:26:30;;;;;;;1.95;1.08;;;12.40;99.90;;;;;;5008671;28;20053;-66
2023/08/27 23:28:56;;;;;;;2.05;1.02;;;12.40;99.90;;;;;;5007302;28;20466;-67
2023/08/27 23:31:22;;;;;;;1.88;0.88;;;12.40;99.90;;;;;;4990820;28;20081;-67
2023/08/27 23:33:48;;;;;;;1.88;1.00;;;12.50;99.90;;;;;;4990312;28;20107;-67
2023/08/27 23:36:14;;;;;;;2.65;1.45;;;12.50;99.90;;;;;;4989727;28;20042;-66
2023/08/27 23:38:40;;;;;;;1.60;0.77;;;12.50;99.90;;;;;;4971761;28;20129;-66
2023/08/27 23:41:05;;;;;;;1.10;0.50;;;12.50;99.90;;;;;;4971149;28;20042;-67
2023/08/27 23:43:31;;;;;;;2.63;0.55;;;12.60;99.90;;;;;;5010424;28;20383;-67
2023/08/27 23:45:57;;;;;;;1.05;0.50;;;12.60;99.90;;;;;;5007963;28;20560;-67
2023/08/27 23:48:23;;;;;;;1.40;0.47;;;12.60;99.90;;;;;;4990936;28;20045;-67
2023/08/27 23:50:49;;;;;;;1.25;0.77;;;12.60;99.90;;;;;;5007187;28;20054;-66
2023/08/27 23:53:15;;;;;;;0.38;0.35;;;12.60;99.90;;;;;;4978944;28;20046;-66
2023/08/27 23:55:41;;;;;;;1.25;0.68;;;12.60;99.90;;;;;;5003471;28;20050;-66
2023/08/27 23:58:07;;;;;;;1.02;0.50;;;12.60;99.90;;;;;;4987732;28;20037;-66
